createdAt,value
2022-10-02T00:00:45.138Z,101207.94
2022-10-02T00:03:17.365Z,101212.03
2022-10-02T00:05:48.003Z,101222.69
2022-10-02T00:08:20.773Z,101233.34
2022-10-02T00:10:54.474Z,101238.63
2022-10-02T00:13:26.188Z,101242.00
2022-10-02T00:15:55.298Z,101239.66
2022-10-02T00:18:25.821Z,101234.91
2022-10-02T00:20:59.785Z,101215.72
2022-10-02T00:23:29.978Z,101210.34
2022-10-02T00:26:01.919Z,101213.81
2022-10-02T00:28:32.516Z,101206.56
2022-10-02T00:31:12.563Z,101197.59
2022-10-02T00:33:44.468Z,101206.13
2022-10-02T00:36:19.256Z,101209.91
2022-10-02T00:38:52.175Z,101216.13
2022-10-02T00:41:53.891Z,101219.72
2022-10-02T00:44:34.411Z,101227.81
2022-10-02T00:47:05.341Z,101232.63
2022-10-02T00:49:50.821Z,101228.44
2022-10-02T00:52:28.412Z,101226.84
2022-10-02T00:55:04.417Z,101218.28
2022-10-02T00:57:41.330Z,101235.31
2022-10-02T01:00:11.042Z,101232.56
2022-10-02T01:02:48.869Z,101230.53
2022-10-02T01:05:17.001Z,101233.25
2022-10-02T01:07:46.361Z,101250.88
2022-10-02T01:10:15.055Z,101245.03
2022-10-02T01:12:44.478Z,101248.34
2022-10-02T01:15:13.226Z,101248.81
2022-10-02T01:17:41.332Z,101247.88
2022-10-02T01:20:13.896Z,101245.25
2022-10-02T01:22:45.580Z,101245.25
2022-10-02T01:25:15.254Z,101246.19
2022-10-02T01:27:43.459Z,101238.66
2022-10-02T01:30:12.740Z,101234.34
2022-10-02T01:32:42.715Z,101231.72
2022-10-02T01:35:10.608Z,101227.75
2022-10-02T01:37:42.594Z,101230.50
2022-10-02T01:40:23.536Z,101239.44
2022-10-02T01:42:53.082Z,101239.44
2022-10-02T01:45:23.294Z,101245.47
2022-10-02T01:47:52.850Z,101246.88
2022-10-02T01:50:29.018Z,101244.06
2022-10-02T01:53:02.587Z,101263.75
2022-10-02T01:55:36.748Z,101283.00
2022-10-02T01:58:16.709Z,101281.03
2022-10-02T02:00:50.805Z,101283.38
2022-10-02T02:03:23.117Z,101290.34
2022-10-02T02:05:53.404Z,101280.19
2022-10-02T02:08:25.935Z,101278.63
2022-10-02T02:10:59.872Z,101280.34
2022-10-02T02:13:31.808Z,101271.19
2022-10-02T02:16:03.534Z,101277.97
2022-10-02T02:18:35.322Z,101267.41
2022-10-02T02:21:06.050Z,101266.94
2022-10-02T02:23:35.394Z,101259.41
2022-10-02T02:26:05.297Z,101267.53
2022-10-02T02:28:35.877Z,101268.38
2022-10-02T02:31:04.650Z,101277.09
2022-10-02T02:33:37.388Z,101274.28
2022-10-02T02:36:08.981Z,101267.22
2022-10-02T02:38:38.761Z,101264.59
2022-10-02T02:41:10.402Z,101258.59
2022-10-02T02:43:43.308Z,101261.28
2022-10-02T02:46:15.586Z,101259.53
2022-10-02T02:48:46.167Z,101258.75
2022-10-02T02:51:16.441Z,101258.66
2022-10-02T02:53:48.213Z,101267.53
2022-10-02T02:56:18.979Z,101270.25
2022-10-02T02:58:55.420Z,101267.63
2022-10-02T03:01:23.454Z,101268.81
2022-10-02T03:03:51.253Z,101266.28
2022-10-02T03:06:28.378Z,101269.03
2022-10-02T03:08:57.841Z,101276.28
2022-10-02T03:11:33.144Z,101269.31
2022-10-02T03:14:09.823Z,101266.84
2022-10-02T03:16:42.389Z,101260.91
2022-10-02T03:19:19.735Z,101263.84
2022-10-02T03:21:53.932Z,101258.88
2022-10-02T03:24:24.992Z,101265.91
2022-10-02T03:26:56.272Z,101266.22
2022-10-02T03:29:27.756Z,101261.16
2022-10-02T03:31:55.750Z,101265.56
2022-10-02T03:34:24.857Z,101276.75
2022-10-02T03:36:52.909Z,101276.31
2022-10-02T03:39:25.232Z,101270.09
2022-10-02T03:41:53.920Z,101273.47
2022-10-02T03:44:22.143Z,101277.91
2022-10-02T03:46:53.859Z,101279.78
2022-10-02T03:49:21.695Z,101278.56
2022-10-02T03:51:49.461Z,101275.75
2022-10-02T03:54:18.741Z,101274.03
2022-10-02T03:56:52.108Z,101272.28
2022-10-02T03:59:26.167Z,101267.63
2022-10-02T04:01:56.751Z,101271.41
2022-10-02T04:04:25.963Z,101269.75
2022-10-02T04:06:56.940Z,101273.31
2022-10-02T04:09:28.991Z,101274.34
2022-10-02T04:11:59.779Z,101273.50
2022-10-02T04:14:31.500Z,101275.47
2022-10-02T04:17:03.503Z,101275.56
2022-10-02T04:19:36.507Z,101281.78
2022-10-02T04:22:09.364Z,101290.81
2022-10-02T04:24:42.760Z,101291.38
2022-10-02T04:27:14.764Z,101293.06
2022-10-02T04:29:45.699Z,101290.44
2022-10-02T04:32:16.230Z,101294.22
2022-10-02T04:34:44.388Z,101288.19
2022-10-02T04:37:24.362Z,101289.97
2022-10-02T04:39:57.140Z,101294.22
2022-10-02T04:42:32.030Z,101286.47
2022-10-02T04:45:11.563Z,101294.38
2022-10-02T04:47:49.321Z,101299.75
2022-10-02T04:50:28.630Z,101308.50
2022-10-02T04:53:03.811Z,101306.91
2022-10-02T04:55:42.317Z,101304.34
2022-10-02T04:58:28.456Z,101306.44
2022-10-02T05:01:00.821Z,101324.09
2022-10-02T05:03:38.016Z,101318.19
2022-10-02T05:06:12.957Z,101322.78
2022-10-02T05:08:52.239Z,101328.25
2022-10-02T05:11:31.911Z,101316.28
2022-10-02T05:14:10.826Z,101317.03
2022-10-02T05:16:49.155Z,101320.78
2022-10-02T05:19:25.805Z,101319.97
2022-10-02T05:22:03.945Z,101323.53
2022-10-02T05:24:41.360Z,101319.38
2022-10-02T05:27:16.481Z,101323.97
2022-10-02T05:29:54.285Z,101321.91
2022-10-02T05:32:29.813Z,101328.41
2022-10-02T05:35:07.601Z,101329.31
2022-10-02T05:37:40.814Z,101340.88
2022-10-02T05:40:14.450Z,101349.81
2022-10-02T05:42:47.795Z,101363.72
2022-10-02T05:45:20.618Z,101372.84
2022-10-02T05:47:50.815Z,101372.16
2022-10-02T05:50:21.581Z,101367.00
2022-10-02T05:52:54.999Z,101375.91
2022-10-02T05:55:27.019Z,101377.84
2022-10-02T05:57:58.184Z,101381.69
2022-10-02T06:00:31.353Z,101378.03
2022-10-02T06:03:04.452Z,101371.16
2022-10-02T06:05:40.809Z,101360.66
2022-10-02T06:08:11.097Z,101366.50
2022-10-02T06:10:42.603Z,101374.38
2022-10-02T06:13:13.828Z,101366.41
2022-10-02T06:15:45.151Z,101371.56
2022-10-02T06:18:16.056Z,101381.84
2022-10-02T06:20:47.545Z,101387.56
2022-10-02T06:23:20.484Z,101381.78
2022-10-02T06:25:50.348Z,101378.72
2022-10-02T06:28:20.806Z,101389.72
2022-10-02T06:30:50.584Z,101394.63
2022-10-02T06:33:22.076Z,101382.59
2022-10-02T06:36:18.007Z,101376.03
2022-10-02T06:38:56.363Z,101388.84
2022-10-02T06:41:28.796Z,101406.16
2022-10-02T06:44:05.589Z,101407.66
2022-10-02T06:46:38.187Z,101400.31
2022-10-02T06:49:10.050Z,101403.97
2022-10-02T06:51:44.931Z,101409.09
2022-10-02T06:54:26.046Z,101414.06
2022-10-02T06:57:09.558Z,101404.69
2022-10-02T06:59:45.281Z,101407.88
2022-10-02T07:02:21.063Z,101419.06
2022-10-02T07:04:59.227Z,101421.41
2022-10-02T07:07:37.345Z,101415.56
2022-10-02T07:10:15.617Z,101426.59
2022-10-02T07:13:03.010Z,101426.94
2022-10-02T07:15:43.106Z,101432.69
2022-10-02T07:18:19.750Z,101431.34
2022-10-02T07:20:53.884Z,101432.72
2022-10-02T07:23:29.228Z,101438.47
2022-10-02T07:26:08.559Z,101449.47
2022-10-02T07:28:40.427Z,101449.72
2022-10-02T07:31:11.475Z,101447.59
2022-10-02T07:33:47.082Z,101438.88
2022-10-02T07:36:18.793Z,101444.47
2022-10-02T07:38:56.163Z,101447.06
2022-10-02T07:41:45.708Z,101455.13
2022-10-02T07:44:21.023Z,101452.06
2022-10-02T07:46:55.772Z,101462.94
2022-10-02T07:49:30.226Z,101452.91
2022-10-02T07:52:01.792Z,101459.59
2022-10-02T07:54:44.493Z,101467.75
2022-10-02T07:57:23.441Z,101467.63
2022-10-02T07:59:53.081Z,101471.66
2022-10-02T08:02:25.214Z,101478.19
2022-10-02T08:04:58.321Z,101476.75
2022-10-02T08:07:26.787Z,101486.75
2022-10-02T08:09:56.449Z,101483.59
2022-10-02T08:12:29.024Z,101489.19
2022-10-02T08:14:58.407Z,101489.06
2022-10-02T08:17:30.316Z,101487.78
2022-10-02T08:20:00.951Z,101487.03
2022-10-02T08:22:31.998Z,101499.19
2022-10-02T08:25:02.225Z,101491.34
2022-10-02T08:27:35.725Z,101508.44
2022-10-02T08:30:06.593Z,101501.66
2022-10-02T08:32:36.284Z,101505.22
2022-10-02T08:35:11.792Z,101507.13
2022-10-02T08:37:43.362Z,101510.91
2022-10-02T08:40:36.781Z,101512.13
2022-10-02T08:43:22.878Z,101516.84
2022-10-02T08:46:11.675Z,101515.34
2022-10-02T08:48:50.698Z,101515.50
2022-10-02T08:51:45.705Z,101516.56
2022-10-02T08:54:30.714Z,101536.34
2022-10-02T08:57:13.206Z,101535.56
2022-10-02T09:00:01.932Z,101537.63
2022-10-02T09:02:50.709Z,101544.75
2022-10-02T09:05:39.575Z,101548.03
2022-10-02T09:08:26.312Z,101541.03
2022-10-02T09:11:12.891Z,101550.94
2022-10-02T09:13:55.526Z,101543.31
2022-10-02T09:16:29.588Z,101545.84
2022-10-02T09:19:02.922Z,101555.84
2022-10-02T09:21:42.039Z,101546.69
2022-10-02T09:24:26.590Z,101550.66
2022-10-02T09:27:21.311Z,101548.72
2022-10-02T09:30:03.957Z,101551.50
2022-10-02T09:32:57.708Z,101544.84
2022-10-02T09:35:52.474Z,101548.41
2022-10-02T09:38:45.509Z,101558.38
2022-10-02T09:41:34.898Z,101551.56
2022-10-02T09:44:18.589Z,101559.19
2022-10-02T09:47:04.058Z,101562.88
2022-10-02T09:50:00.728Z,101572.13
2022-10-02T09:52:46.775Z,101569.03
2022-10-02T09:55:29.432Z,101570.78
2022-10-02T09:58:14.897Z,101578.66
2022-10-02T10:01:01.052Z,101566.13
2022-10-02T10:03:48.497Z,101562.22
2022-10-02T10:06:34.469Z,101567.41
2022-10-02T10:09:17.250Z,101572.84
2022-10-02T10:11:57.512Z,101573.94
2022-10-02T10:14:52.100Z,101570.25
2022-10-02T10:17:44.170Z,101571.88
2022-10-02T10:20:34.417Z,101585.13
2022-10-02T10:23:14.515Z,101583.97
2022-10-02T10:25:57.130Z,101578.78
2022-10-02T10:28:40.392Z,101583.94
2022-10-02T10:31:25.647Z,101576.97
2022-10-02T10:34:11.533Z,101584.16
2022-10-02T10:37:13.355Z,101586.50
2022-10-02T10:39:57.609Z,101577.94
2022-10-02T10:43:06.574Z,101576.41
2022-10-02T10:45:42.174Z,101586.09
2022-10-02T10:48:19.842Z,101593.00
2022-10-02T10:51:00.790Z,101592.00
2022-10-02T10:53:46.633Z,101599.13
2022-10-02T10:56:27.994Z,101604.88
2022-10-02T10:59:12.262Z,101615.13
2022-10-02T11:01:47.489Z,101616.34
2022-10-02T11:04:30.619Z,101627.88
2022-10-02T11:07:20.708Z,101623.00
2022-10-02T11:09:58.484Z,101628.84
2022-10-02T11:12:41.294Z,101630.41
2022-10-02T11:15:19.994Z,101634.75
2022-10-02T11:18:03.282Z,101638.84
2022-10-02T11:20:37.310Z,101634.06
2022-10-02T11:23:26.052Z,101643.38
2022-10-02T11:26:11.170Z,101637.28
2022-10-02T11:28:54.224Z,101633.75
2022-10-02T11:31:37.446Z,101636.28
2022-10-02T11:34:26.965Z,101642.22
2022-10-02T11:37:04.060Z,101635.38
2022-10-02T11:39:49.886Z,101648.19
2022-10-02T11:42:31.624Z,101645.66
2022-10-02T11:45:09.672Z,101646.91
2022-10-02T11:47:48.949Z,101641.16
2022-10-02T11:50:29.176Z,101648.72
2022-10-02T11:53:10.411Z,101647.59
2022-10-02T11:55:43.831Z,101656.88
2022-10-02T11:58:16.997Z,101649.00
2022-10-02T12:01:05.746Z,101656.56
2022-10-02T12:03:39.909Z,101651.25
2022-10-02T12:06:14.136Z,101653.22
2022-10-02T12:08:50.999Z,101657.63
2022-10-02T12:11:22.675Z,101660.50
2022-10-02T12:14:08.154Z,101661.78
2022-10-02T12:16:44.857Z,101650.22
2022-10-02T12:19:20.752Z,101652.56
2022-10-02T12:22:14.878Z,101657.44
2022-10-02T12:25:04.706Z,101657.03
2022-10-02T12:27:38.068Z,101672.19
2022-10-02T12:30:07.896Z,101672.34
2022-10-02T12:32:49.809Z,101665.06
2022-10-02T12:35:24.012Z,101673.47
2022-10-02T12:37:57.732Z,101666.50
2022-10-02T12:40:32.975Z,101669.41
2022-10-02T12:43:33.823Z,101676.44
2022-10-02T12:46:10.361Z,101672.13
2022-10-02T12:48:45.863Z,101670.69
2022-10-02T12:51:35.651Z,101681.03
2022-10-02T12:54:24.379Z,101676.63
2022-10-02T12:57:10.678Z,101680.09
2022-10-02T12:59:47.128Z,101682.88
2022-10-02T13:02:56.152Z,101670.69
2022-10-02T13:05:35.660Z,101680.31
2022-10-02T13:08:11.059Z,101678.91
2022-10-02T13:10:42.765Z,101678.22
2022-10-02T13:13:17.681Z,101674.72
2022-10-02T13:15:54.914Z,101676.31
2022-10-02T13:18:30.036Z,101676.59
2022-10-02T13:21:04.259Z,101681.50
2022-10-02T13:23:39.840Z,101681.78
2022-10-02T13:26:15.806Z,101690.13
2022-10-02T13:28:50.809Z,101683.81
2022-10-02T13:31:23.199Z,101686.09
2022-10-02T13:34:01.150Z,101696.50
2022-10-02T13:36:36.094Z,101684.09
2022-10-02T13:39:14.281Z,101692.97
2022-10-02T13:41:50.442Z,101692.56
2022-10-02T13:44:25.035Z,101688.47
2022-10-02T13:47:01.440Z,101688.78
2022-10-02T13:49:40.875Z,101696.09
2022-10-02T13:52:20.142Z,101705.63
2022-10-02T13:55:04.845Z,101711.50
2022-10-02T13:57:41.497Z,101710.63
2022-10-02T14:00:10.856Z,101713.16
2022-10-02T14:02:58.928Z,101718.59
2022-10-02T14:05:32.717Z,101721.72
2022-10-02T14:08:08.982Z,101711.09
2022-10-02T14:10:45.922Z,101715.31
2022-10-02T14:13:27.195Z,101722.88
2022-10-02T14:16:03.401Z,101719.34
2022-10-02T14:18:49.950Z,101720.34
2022-10-02T14:21:21.098Z,101723.47
2022-10-02T14:24:12.935Z,101723.94
2022-10-02T14:26:50.940Z,101726.59
2022-10-02T14:29:30.437Z,101737.81
2022-10-02T14:32:21.217Z,101732.69
2022-10-02T14:34:57.209Z,101727.63
2022-10-02T14:37:38.780Z,101733.94
2022-10-02T14:40:12.978Z,101736.81
2022-10-02T14:42:54.060Z,101744.66
2022-10-02T14:45:43.374Z,101734.91
2022-10-02T14:48:19.614Z,101744.63
2022-10-02T14:50:58.733Z,101744.31
2022-10-02T14:53:45.646Z,101757.31
2022-10-02T14:56:30.961Z,101760.31
2022-10-02T14:59:09.863Z,101766.84
2022-10-02T15:01:42.302Z,101765.25
2022-10-02T15:04:15.514Z,101769.41
2022-10-02T15:07:01.197Z,101769.91
2022-10-02T15:09:31.141Z,101774.50
2022-10-02T15:12:07.954Z,101787.59
2022-10-02T15:14:41.212Z,101784.44
2022-10-02T15:17:30.408Z,101781.56
2022-10-02T15:20:04.622Z,101788.78
2022-10-02T15:22:37.013Z,101791.94
2022-10-02T15:25:17.765Z,101780.47
2022-10-02T15:27:47.864Z,101799.56
2022-10-02T15:30:20.643Z,101806.94
2022-10-02T15:33:10.890Z,101800.06
2022-10-02T15:36:01.081Z,101798.47
2022-10-02T15:38:42.313Z,101809.00
2022-10-02T15:41:31.258Z,101806.69
2022-10-02T15:44:06.806Z,101818.50
2022-10-02T15:46:43.685Z,101823.69
2022-10-02T15:49:14.627Z,101823.56
2022-10-02T15:51:51.945Z,101826.28
2022-10-02T15:54:30.848Z,101830.59
2022-10-02T15:57:08.102Z,101827.13
2022-10-02T15:59:42.951Z,101831.63
2022-10-02T16:02:27.330Z,101841.34
2022-10-02T16:05:03.615Z,101844.38
2022-10-02T16:07:43.053Z,101847.34
2022-10-02T16:10:23.362Z,101854.72
2022-10-02T16:13:06.073Z,101852.53
2022-10-02T16:15:39.726Z,101859.19
2022-10-02T16:18:25.127Z,101865.13
2022-10-02T16:21:12.635Z,101871.59
2022-10-02T16:23:52.949Z,101875.16
2022-10-02T16:26:27.203Z,101879.56
2022-10-02T16:29:01.096Z,101890.50
2022-10-02T16:31:39.948Z,101890.44
2022-10-02T16:34:17.801Z,101894.78
2022-10-02T16:36:51.738Z,101912.19
2022-10-02T16:39:31.826Z,101915.44
2022-10-02T16:42:03.891Z,101907.72
2022-10-02T16:44:40.749Z,101924.47
2022-10-02T16:47:13.012Z,101922.03
2022-10-02T16:49:49.035Z,101921.00
2022-10-02T16:52:21.831Z,101927.03
2022-10-02T16:54:53.218Z,101935.94
2022-10-02T16:57:24.046Z,101932.97
2022-10-02T16:59:55.456Z,101939.97
2022-10-02T17:02:25.847Z,101947.81
2022-10-02T17:05:03.167Z,101955.00
2022-10-02T17:07:38.588Z,101957.88
2022-10-02T17:10:18.834Z,101964.22
2022-10-02T17:12:49.510Z,101965.56
2022-10-02T17:15:22.015Z,101972.38
2022-10-02T17:18:01.012Z,101971.09
2022-10-02T17:20:32.550Z,101975.22
2022-10-02T17:23:04.313Z,101978.56
2022-10-02T17:25:37.152Z,101989.53
2022-10-02T17:28:10.319Z,101995.94
2022-10-02T17:30:55.225Z,102001.63
2022-10-02T17:33:27.141Z,102007.28
2022-10-02T17:36:02.109Z,101999.94
2022-10-02T17:38:48.094Z,102005.13
2022-10-02T17:41:22.163Z,102026.88
2022-10-02T17:43:55.218Z,102021.97
2022-10-02T17:46:32.954Z,102021.69
2022-10-02T17:49:04.056Z,102027.84
2022-10-02T17:51:58.757Z,102040.41
2022-10-02T17:54:51.673Z,102038.69
2022-10-02T17:57:25.740Z,102041.16
2022-10-02T18:00:03.650Z,102048.69
2022-10-02T18:02:58.906Z,102047.53
2022-10-02T18:05:30.850Z,102055.34
2022-10-02T18:08:08.797Z,102061.00
2022-10-02T18:10:43.145Z,102066.38
2022-10-02T18:13:22.508Z,102069.84
2022-10-02T18:16:14.221Z,102074.72
2022-10-02T18:18:43.958Z,102089.16
2022-10-02T18:21:23.568Z,102078.00
2022-10-02T18:24:09.312Z,102087.72
2022-10-02T18:26:46.287Z,102093.06
2022-10-02T18:29:24.640Z,102092.47
2022-10-02T18:32:04.266Z,102094.59
2022-10-02T18:34:43.561Z,102098.03
2022-10-02T18:37:22.107Z,102102.53
2022-10-02T18:40:04.785Z,102101.59
2022-10-02T18:42:42.631Z,102101.94
2022-10-02T18:45:27.218Z,102108.41
2022-10-02T18:48:03.965Z,102105.03
2022-10-02T18:50:40.170Z,102114.81
2022-10-02T18:53:25.484Z,102110.34
2022-10-02T18:56:02.928Z,102119.56
2022-10-02T18:58:43.203Z,102127.06
2022-10-02T19:01:17.562Z,102121.78
2022-10-02T19:04:02.380Z,102128.38
2022-10-02T19:06:33.438Z,102126.03
2022-10-02T19:09:12.379Z,102133.88
2022-10-02T19:11:45.603Z,102132.53
2022-10-02T19:14:14.696Z,102125.78
2022-10-02T19:16:57.088Z,102132.75
2022-10-02T19:19:25.502Z,102128.41
2022-10-02T19:21:59.032Z,102137.91
2022-10-02T19:24:29.171Z,102140.88
2022-10-02T19:27:00.695Z,102139.84
2022-10-02T19:29:31.696Z,102138.06
2022-10-02T19:32:01.353Z,102142.72
2022-10-02T19:34:31.040Z,102141.97
2022-10-02T19:37:00.512Z,102154.22
2022-10-02T19:39:31.193Z,102152.34
2022-10-02T19:42:03.142Z,102156.94
2022-10-02T19:44:32.370Z,102166.81
2022-10-02T19:47:02.890Z,102173.19
2022-10-02T19:49:34.180Z,102183.88
2022-10-02T19:52:02.250Z,102180.69
2022-10-02T19:54:32.340Z,102185.13
2022-10-02T19:57:04.382Z,102188.38
2022-10-02T19:59:43.061Z,102189.09
2022-10-02T20:02:15.888Z,102189.31
2022-10-02T20:04:43.887Z,102189.84
2022-10-02T20:07:16.248Z,102203.56
2022-10-02T20:09:46.363Z,102205.56
2022-10-02T20:12:18.609Z,102210.38
2022-10-02T20:14:51.732Z,102207.09
2022-10-02T20:17:19.162Z,102222.22
2022-10-02T20:19:50.791Z,102222.41
2022-10-02T20:22:26.002Z,102226.84
2022-10-02T20:24:57.239Z,102225.22
2022-10-02T20:27:29.435Z,102222.72
2022-10-02T20:30:01.791Z,102229.84
2022-10-02T20:32:32.829Z,102226.03
2022-10-02T20:35:02.203Z,102227.94
2022-10-02T20:37:31.327Z,102226.53
2022-10-02T20:40:02.902Z,102234.53
2022-10-02T20:42:36.581Z,102230.72
2022-10-02T20:45:04.864Z,102239.22
2022-10-02T20:47:52.460Z,102240.28
2022-10-02T20:50:32.856Z,102243.75
2022-10-02T20:53:19.175Z,102243.03
2022-10-02T20:55:51.510Z,102245.75
2022-10-02T20:58:39.174Z,102249.59
2022-10-02T21:01:17.232Z,102256.00
2022-10-02T21:04:00.504Z,102252.72
2022-10-02T21:06:42.451Z,102264.38
2022-10-02T21:09:30.968Z,102267.28
2022-10-02T21:12:11.110Z,102270.94
2022-10-02T21:14:46.425Z,102271.09
2022-10-02T21:17:38.990Z,102276.78
2022-10-02T21:20:49.622Z,102279.69
2022-10-02T21:23:37.831Z,102284.28
2022-10-02T21:26:16.553Z,102291.38
2022-10-02T21:29:17.422Z,102295.28
2022-10-02T21:31:58.548Z,102299.63
2022-10-02T21:34:32.118Z,102312.09
2022-10-02T21:37:04.648Z,102314.81
2022-10-02T21:39:53.459Z,102323.53
2022-10-02T21:42:42.522Z,102331.72
2022-10-02T21:45:37.534Z,102330.78
2022-10-02T21:48:26.121Z,102328.78
2022-10-02T21:51:16.148Z,102331.59
2022-10-02T21:53:58.065Z,102335.19
2022-10-02T21:56:38.364Z,102337.25
2022-10-02T21:59:27.076Z,102338.03
2022-10-02T22:02:18.173Z,102343.50
2022-10-02T22:05:06.841Z,102346.75
2022-10-02T22:07:40.521Z,102347.91
2022-10-02T22:10:12.750Z,102345.31
2022-10-02T22:12:51.258Z,102349.03
2022-10-02T22:15:23.754Z,102347.16
2022-10-02T22:17:58.109Z,102350.16
2022-10-02T22:20:35.220Z,102348.56
2022-10-02T22:23:23.952Z,102349.31
2022-10-02T22:26:01.022Z,102357.59
2022-10-02T22:28:35.810Z,102361.75
2022-10-02T22:31:11.515Z,102365.66
2022-10-02T22:33:44.821Z,102364.88
2022-10-02T22:36:19.293Z,102367.81
2022-10-02T22:38:49.333Z,102375.44
2022-10-02T22:41:26.585Z,102376.16
2022-10-02T22:43:56.190Z,102371.94
2022-10-02T22:46:29.391Z,102374.13
2022-10-02T22:49:00.398Z,102369.88
2022-10-02T22:51:32.347Z,102369.13
2022-10-02T22:54:04.735Z,102373.53
2022-10-02T22:56:37.510Z,102370.91
2022-10-02T22:59:10.210Z,102375.47
2022-10-02T23:01:43.403Z,102370.22
2022-10-02T23:04:20.644Z,102365.78
2022-10-02T23:06:51.590Z,102372.16
2022-10-02T23:09:22.294Z,102368.88
2022-10-02T23:11:56.373Z,102375.09
2022-10-02T23:14:29.093Z,102368.28
2022-10-02T23:17:00.753Z,102365.53
2022-10-02T23:19:31.998Z,102361.19
2022-10-02T23:22:05.259Z,102364.72
2022-10-02T23:24:36.024Z,102365.75
2022-10-02T23:27:10.031Z,102364.25
2022-10-02T23:29:44.298Z,102371.56
2022-10-02T23:32:19.084Z,102369.63
2022-10-02T23:34:52.118Z,102371.56
2022-10-02T23:37:23.987Z,102369.75
2022-10-02T23:39:55.151Z,102372.53
2022-10-02T23:42:27.763Z,102376.03
2022-10-02T23:44:59.320Z,102377.88
2022-10-02T23:47:34.927Z,102375.25
2022-10-02T23:50:03.124Z,102383.28
2022-10-02T23:52:43.197Z,102383.13
2022-10-02T23:55:19.411Z,102391.97
2022-10-02T23:58:02.114Z,102389.28
